sensor_id;sensor_type;location;lat;lon;timestamp;temperature;humidity
77052;SHT30;65980;44.898;8.602;2023-05-01T00:02:39;16.75;73.66
77052;SHT30;65980;44.898;8.602;2023-05-01T00:05:44;16.36;75.01
77052;SHT30;65980;44.898;8.602;2023-05-01T00:08:49;16.28;74.55
77052;SHT30;65980;44.898;8.602;2023-05-01T00:11:53;16.21;75.06
77052;SHT30;65980;44.898;8.602;2023-05-01T00:14:58;16.21;75.20
77052;SHT30;65980;44.898;8.602;2023-05-01T00:18:03;16.16;75.23
77052;SHT30;65980;44.898;8.602;2023-05-01T00:21:07;16.16;75.36
77052;SHT30;65980;44.898;8.602;2023-05-01T00:24:12;16.22;75.32
77052;SHT30;65980;44.898;8.602;2023-05-01T00:27:15;16.27;75.30
77052;SHT30;65980;44.898;8.602;2023-05-01T00:30:20;16.29;74.84
77052;SHT30;65980;44.898;8.602;2023-05-01T00:33:27;16.22;75.20
77052;SHT30;65980;44.898;8.602;2023-05-01T00:36:34;16.18;75.28
77052;SHT30;65980;44.898;8.602;2023-05-01T00:39:38;16.27;75.29
77052;SHT30;65980;44.898;8.602;2023-05-01T00:42:43;16.21;74.96
77052;SHT30;65980;44.898;8.602;2023-05-01T00:45:47;16.18;75.26
77052;SHT30;65980;44.898;8.602;2023-05-01T00:48:51;16.18;75.54
77052;SHT30;65980;44.898;8.602;2023-05-01T00:51:56;16.16;75.20
77052;SHT30;65980;44.898;8.602;2023-05-01T00:55:03;16.08;75.68
77052;SHT30;65980;44.898;8.602;2023-05-01T00:58:07;15.97;75.72
77052;SHT30;65980;44.898;8.602;2023-05-01T01:01:19;15.93;76.17
77052;SHT30;65980;44.898;8.602;2023-05-01T01:04:28;15.91;76.21
77052;SHT30;65980;44.898;8.602;2023-05-01T01:17:50;15.99;76.06
77052;SHT30;65980;44.898;8.602;2023-05-01T01:24:25;16.10;75.74
77052;SHT30;65980;44.898;8.602;2023-05-01T01:30:48;15.91;76.40
77052;SHT30;65980;44.898;8.602;2023-05-01T01:37:31;16.00;76.23
77052;SHT30;65980;44.898;8.602;2023-05-01T01:40:38;15.99;76.51
77052;SHT30;65980;44.898;8.602;2023-05-01T01:43:46;16.10;75.71
77052;SHT30;65980;44.898;8.602;2023-05-01T01:46:59;16.21;75.43
77052;SHT30;65980;44.898;8.602;2023-05-01T01:53:52;16.31;75.21
77052;SHT30;65980;44.898;8.602;2023-05-01T01:56:56;16.32;74.87
77052;SHT30;65980;44.898;8.602;2023-05-01T02:11:03;16.04;75.46
77052;SHT30;65980;44.898;8.602;2023-05-01T02:14:08;16.34;73.98
77052;SHT30;65980;44.898;8.602;2023-05-01T02:17:14;16.35;74.26
77052;SHT30;65980;44.898;8.602;2023-05-01T02:20:23;16.41;73.82
77052;SHT30;65980;44.898;8.602;2023-05-01T02:23:27;16.25;73.68
77052;SHT30;65980;44.898;8.602;2023-05-01T02:26:34;16.44;72.61
77052;SHT30;65980;44.898;8.602;2023-05-01T02:29:41;16.69;72.09
77052;SHT30;65980;44.898;8.602;2023-05-01T02:32:47;16.45;72.01
77052;SHT30;65980;44.898;8.602;2023-05-01T02:35:51;16.31;72.86
77052;SHT30;65980;44.898;8.602;2023-05-01T02:38:58;16.25;72.83
77052;SHT30;65980;44.898;8.602;2023-05-01T02:42:02;16.53;71.96
77052;SHT30;65980;44.898;8.602;2023-05-01T02:45:08;16.53;71.82
77052;SHT30;65980;44.898;8.602;2023-05-01T02:48:14;16.62;71.39
77052;SHT30;65980;44.898;8.602;2023-05-01T02:51:20;16.80;70.99
77052;SHT30;65980;44.898;8.602;2023-05-01T02:54:25;16.76;71.15
77052;SHT30;65980;44.898;8.602;2023-05-01T02:57:36;16.79;70.82
77052;SHT30;65980;44.898;8.602;2023-05-01T03:00:44;16.38;71.96
77052;SHT30;65980;44.898;8.602;2023-05-01T03:03:49;16.44;72.15
77052;SHT30;65980;44.898;8.602;2023-05-01T03:07:05;16.62;71.49
77052;SHT30;65980;44.898;8.602;2023-05-01T03:10:19;16.63;71.15
77052;SHT30;65980;44.898;8.602;2023-05-01T03:13:26;16.79;71.19
77052;SHT30;65980;44.898;8.602;2023-05-01T03:16:38;16.84;70.62
77052;SHT30;65980;44.898;8.602;2023-05-01T03:19:43;16.86;70.70
77052;SHT30;65980;44.898;8.602;2023-05-01T03:22:49;16.90;70.85
77052;SHT30;65980;44.898;8.602;2023-05-01T03:25:59;16.70;71.69
77052;SHT30;65980;44.898;8.602;2023-05-01T03:29:24;16.31;73.44
77052;SHT30;65980;44.898;8.602;2023-05-01T03:32:33;16.40;72.77
77052;SHT30;65980;44.898;8.602;2023-05-01T03:35:38;16.69;72.02
77052;SHT30;65980;44.898;8.602;2023-05-01T03:38:43;16.68;72.18
77052;SHT30;65980;44.898;8.602;2023-05-01T03:41:47;16.63;72.29
77052;SHT30;65980;44.898;8.602;2023-05-01T03:45:02;16.65;72.53
77052;SHT30;65980;44.898;8.602;2023-05-01T03:48:10;16.65;72.57
77052;SHT30;65980;44.898;8.602;2023-05-01T03:51:27;16.66;72.71
77052;SHT30;65980;44.898;8.602;2023-05-01T03:54:35;16.63;72.86
77052;SHT30;65980;44.898;8.602;2023-05-01T03:57:57;16.65;72.74
77052;SHT30;65980;44.898;8.602;2023-05-01T04:01:09;16.66;72.86
77052;SHT30;65980;44.898;8.602;2023-05-01T04:04:19;16.75;72.53
77052;SHT30;65980;44.898;8.602;2023-05-01T04:07:39;16.84;72.21
77052;SHT30;65980;44.898;8.602;2023-05-01T04:10:46;16.87;72.26
77052;SHT30;65980;44.898;8.602;2023-05-01T04:13:56;16.77;72.44
77052;SHT30;65980;44.898;8.602;2023-05-01T04:17:00;16.63;72.91
77052;SHT30;65980;44.898;8.602;2023-05-01T04:20:05;16.40;73.73
77052;SHT30;65980;44.898;8.602;2023-05-01T04:23:11;16.48;73.65
77052;SHT30;65980;44.898;8.602;2023-05-01T04:26:18;16.41;73.88
77052;SHT30;65980;44.898;8.602;2023-05-01T04:29:29;16.52;73.58
77052;SHT30;65980;44.898;8.602;2023-05-01T04:32:36;16.29;74.41
77052;SHT30;65980;44.898;8.602;2023-05-01T04:35:47;16.32;74.26
77052;SHT30;65980;44.898;8.602;2023-05-01T04:38:53;16.41;73.90
77052;SHT30;65980;44.898;8.602;2023-05-01T04:42:03;16.41;74.06
77052;SHT30;65980;44.898;8.602;2023-05-01T04:45:07;16.42;73.82
77052;SHT30;65980;44.898;8.602;2023-05-01T04:48:15;16.29;74.08
77052;SHT30;65980;44.898;8.602;2023-05-01T04:51:23;16.29;74.13
77052;SHT30;65980;44.898;8.602;2023-05-01T04:54:28;16.31;74.22
77052;SHT30;65980;44.898;8.602;2023-05-01T05:01:30;16.14;74.98
77052;SHT30;65980;44.898;8.602;2023-05-01T05:04:42;16.36;74.30
77052;SHT30;65980;44.898;8.602;2023-05-01T05:07:51;16.47;73.71
77052;SHT30;65980;44.898;8.602;2023-05-01T05:11:05;16.45;73.71
77052;SHT30;65980;44.898;8.602;2023-05-01T05:14:39;16.32;73.72
77052;SHT30;65980;44.898;8.602;2023-05-01T05:17:52;16.16;74.44
77052;SHT30;65980;44.898;8.602;2023-05-01T05:24:45;16.28;75.03
77052;SHT30;65980;44.898;8.602;2023-05-01T05:27:59;16.42;74.63
77052;SHT30;65980;44.898;8.602;2023-05-01T05:31:08;16.38;74.43
77052;SHT30;65980;44.898;8.602;2023-05-01T05:37:51;16.56;73.30
77052;SHT30;65980;44.898;8.602;2023-05-01T05:41:05;16.62;73.56
77052;SHT30;65980;44.898;8.602;2023-05-01T05:44:42;16.62;73.69
77052;SHT30;65980;44.898;8.602;2023-05-01T05:47:54;16.90;73.41
77052;SHT30;65980;44.898;8.602;2023-05-01T05:51:06;16.94;72.73
77052;SHT30;65980;44.898;8.602;2023-05-01T05:54:11;16.56;74.04
77052;SHT30;65980;44.898;8.602;2023-05-01T05:57:18;16.66;73.48
77052;SHT30;65980;44.898;8.602;2023-05-01T06:00:35;16.55;74.27
77052;SHT30;65980;44.898;8.602;2023-05-01T06:03:47;16.73;73.34
77052;SHT30;65980;44.898;8.602;2023-05-01T06:06:58;16.69;73.59
77052;SHT30;65980;44.898;8.602;2023-05-01T06:10:07;16.51;74.94
77052;SHT30;65980;44.898;8.602;2023-05-01T06:13:12;16.72;73.53
77052;SHT30;65980;44.898;8.602;2023-05-01T06:16:25;16.53;74.23
77052;SHT30;65980;44.898;8.602;2023-05-01T06:19:41;16.63;74.62
77052;SHT30;65980;44.898;8.602;2023-05-01T06:22:53;16.52;74.81
77052;SHT30;65980;44.898;8.602;2023-05-01T06:26:04;16.11;75.82
77052;SHT30;65980;44.898;8.602;2023-05-01T06:33:15;16.28;75.75
77052;SHT30;65980;44.898;8.602;2023-05-01T06:36:43;16.22;75.42
77052;SHT30;65980;44.898;8.602;2023-05-01T06:40:01;16.45;75.01
77052;SHT30;65980;44.898;8.602;2023-05-01T06:43:11;16.44;75.52
77052;SHT30;65980;44.898;8.602;2023-05-01T06:46:18;16.66;74.98
77052;SHT30;65980;44.898;8.602;2023-05-01T06:49:27;16.56;74.98
77052;SHT30;65980;44.898;8.602;2023-05-01T06:52:33;16.76;74.58
77052;SHT30;65980;44.898;8.602;2023-05-01T06:55:46;16.53;75.33
77052;SHT30;65980;44.898;8.602;2023-05-01T06:58:51;16.53;75.41
77052;SHT30;65980;44.898;8.602;2023-05-01T07:01:58;16.49;75.44
77052;SHT30;65980;44.898;8.602;2023-05-01T07:05:04;16.42;75.57
77052;SHT30;65980;44.898;8.602;2023-05-01T07:08:09;16.61;75.47
77052;SHT30;65980;44.898;8.602;2023-05-01T07:11:18;16.65;75.27
77052;SHT30;65980;44.898;8.602;2023-05-01T07:14:23;16.40;75.75
77052;SHT30;65980;44.898;8.602;2023-05-01T07:17:28;16.58;75.93
77052;SHT30;65980;44.898;8.602;2023-05-01T07:20:35;16.69;75.47
77052;SHT30;65980;44.898;8.602;2023-05-01T07:23:39;16.63;75.27
77052;SHT30;65980;44.898;8.602;2023-05-01T07:26:46;16.48;75.77
77052;SHT30;65980;44.898;8.602;2023-05-01T07:30:01;16.61;75.39
77052;SHT30;65980;44.898;8.602;2023-05-01T07:33:14;16.49;75.35
77052;SHT30;65980;44.898;8.602;2023-05-01T07:36:29;16.58;75.13
77052;SHT30;65980;44.898;8.602;2023-05-01T07:39:33;16.76;75.03
77052;SHT30;65980;44.898;8.602;2023-05-01T07:42:39;16.53;75.77
77052;SHT30;65980;44.898;8.602;2023-05-01T07:45:57;16.87;74.67
77052;SHT30;65980;44.898;8.602;2023-05-01T07:49:04;17.04;74.33
77052;SHT30;65980;44.898;8.602;2023-05-01T07:52:09;17.21;73.52
77052;SHT30;65980;44.898;8.602;2023-05-01T07:55:16;16.96;73.78
77052;SHT30;65980;44.898;8.602;2023-05-01T07:58:25;16.86;73.36
77052;SHT30;65980;44.898;8.602;2023-05-01T08:01:29;17.03;73.26
77052;SHT30;65980;44.898;8.602;2023-05-01T08:04:33;17.03;73.04
77052;SHT30;65980;44.898;8.602;2023-05-01T08:07:37;17.28;72.19
77052;SHT30;65980;44.898;8.602;2023-05-01T08:10:41;17.23;72.25
77052;SHT30;65980;44.898;8.602;2023-05-01T08:13:47;16.84;72.07
77052;SHT30;65980;44.898;8.602;2023-05-01T08:16:51;16.82;71.99
77052;SHT30;65980;44.898;8.602;2023-05-01T08:19:58;17.11;71.61
77052;SHT30;65980;44.898;8.602;2023-05-01T08:23:03;17.04;71.79
77052;SHT30;65980;44.898;8.602;2023-05-01T08:26:07;16.73;72.27
77052;SHT30;65980;44.898;8.602;2023-05-01T08:29:11;16.79;72.10
77052;SHT30;65980;44.898;8.602;2023-05-01T08:32:15;16.89;71.98
77052;SHT30;65980;44.898;8.602;2023-05-01T08:35:20;16.65;72.61
77052;SHT30;65980;44.898;8.602;2023-05-01T08:38:25;16.73;72.14
77052;SHT30;65980;44.898;8.602;2023-05-01T08:41:29;16.77;72.40
77052;SHT30;65980;44.898;8.602;2023-05-01T08:44:37;16.83;72.14
77052;SHT30;65980;44.898;8.602;2023-05-01T08:47:41;16.97;71.47
77052;SHT30;65980;44.898;8.602;2023-05-01T08:50:47;16.86;72.01
77052;SHT30;65980;44.898;8.602;2023-05-01T08:53:52;17.00;71.13
77052;SHT30;65980;44.898;8.602;2023-05-01T08:56:59;17.20;70.29
77052;SHT30;65980;44.898;8.602;2023-05-01T09:00:05;17.36;69.73
77052;SHT30;65980;44.898;8.602;2023-05-01T09:03:10;17.42;69.51
77052;SHT30;65980;44.898;8.602;2023-05-01T09:06:15;17.32;69.97
77052;SHT30;65980;44.898;8.602;2023-05-01T09:09:19;17.18;70.34
77052;SHT30;65980;44.898;8.602;2023-05-01T09:12:26;17.34;69.52
77052;SHT30;65980;44.898;8.602;2023-05-01T09:15:31;17.18;69.84
77052;SHT30;65980;44.898;8.602;2023-05-01T09:18:35;17.08;69.61
77052;SHT30;65980;44.898;8.602;2023-05-01T09:21:39;17.08;69.76
77052;SHT30;65980;44.898;8.602;2023-05-01T09:24:46;17.14;69.68
77052;SHT30;65980;44.898;8.602;2023-05-01T09:27:50;17.34;68.92
77052;SHT30;65980;44.898;8.602;2023-05-01T09:30:54;17.04;69.12
77052;SHT30;65980;44.898;8.602;2023-05-01T09:34:01;17.27;69.24
77052;SHT30;65980;44.898;8.602;2023-05-01T09:37:10;17.39;68.91
77052;SHT30;65980;44.898;8.602;2023-05-01T09:40:15;17.42;68.53
77052;SHT30;65980;44.898;8.602;2023-05-01T09:43:28;17.39;68.18
77052;SHT30;65980;44.898;8.602;2023-05-01T09:46:39;17.24;68.58
77052;SHT30;65980;44.898;8.602;2023-05-01T09:49:44;17.46;67.74
77052;SHT30;65980;44.898;8.602;2023-05-01T09:52:51;17.25;68.50
77052;SHT30;65980;44.898;8.602;2023-05-01T09:56:01;17.36;67.84
77052;SHT30;65980;44.898;8.602;2023-05-01T09:59:19;17.36;67.70
77052;SHT30;65980;44.898;8.602;2023-05-01T10:02:27;17.65;67.42
77052;SHT30;65980;44.898;8.602;2023-05-01T10:05:41;17.65;67.34
77052;SHT30;65980;44.898;8.602;2023-05-01T10:08:46;17.89;66.72
77052;SHT30;65980;44.898;8.602;2023-05-01T10:11:52;18.14;65.64
77052;SHT30;65980;44.898;8.602;2023-05-01T10:14:57;17.86;66.09
77052;SHT30;65980;44.898;8.602;2023-05-01T10:18:01;17.85;66.36
77052;SHT30;65980;44.898;8.602;2023-05-01T10:21:06;17.62;66.97
77052;SHT30;65980;44.898;8.602;2023-05-01T10:24:10;17.55;67.13
77052;SHT30;65980;44.898;8.602;2023-05-01T10:27:14;17.56;67.86
77052;SHT30;65980;44.898;8.602;2023-05-01T10:30:20;17.39;68.66
77052;SHT30;65980;44.898;8.602;2023-05-01T10:33:25;17.13;69.79
77052;SHT30;65980;44.898;8.602;2023-05-01T10:36:36;17.07;71.42
77052;SHT30;65980;44.898;8.602;2023-05-01T10:39:48;16.96;71.47
77052;SHT30;65980;44.898;8.602;2023-05-01T10:49:22;17.02;72.85
77052;SHT30;65980;44.898;8.602;2023-05-01T10:52:26;16.70;73.03
77052;SHT30;65980;44.898;8.602;2023-05-01T10:55:39;16.61;72.62
77052;SHT30;65980;44.898;8.602;2023-05-01T11:01:53;16.96;72.87
77052;SHT30;65980;44.898;8.602;2023-05-01T11:04:58;17.10;72.85
77052;SHT30;65980;44.898;8.602;2023-05-01T11:18:12;17.42;70.74
77052;SHT30;65980;44.898;8.602;2023-05-01T11:21:16;17.20;69.86
77052;SHT30;65980;44.898;8.602;2023-05-01T11:24:27;17.39;69.07
77052;SHT30;65980;44.898;8.602;2023-05-01T11:27:34;17.36;68.90
77052;SHT30;65980;44.898;8.602;2023-05-01T11:30:38;17.42;70.22
77052;SHT30;65980;44.898;8.602;2023-05-01T11:33:41;17.49;68.63
77052;SHT30;65980;44.898;8.602;2023-05-01T11:36:47;17.63;68.76
77052;SHT30;65980;44.898;8.602;2023-05-01T11:39:52;17.23;68.35
77052;SHT30;65980;44.898;8.602;2023-05-01T11:43:04;17.32;67.72
77052;SHT30;65980;44.898;8.602;2023-05-01T11:46:09;17.65;68.41
77052;SHT30;65980;44.898;8.602;2023-05-01T11:49:16;17.62;65.41
77052;SHT30;65980;44.898;8.602;2023-05-01T11:52:29;17.41;65.96
77052;SHT30;65980;44.898;8.602;2023-05-01T11:55:35;17.20;65.62
77052;SHT30;65980;44.898;8.602;2023-05-01T11:58:39;17.31;65.29
77052;SHT30;65980;44.898;8.602;2023-05-01T12:01:44;17.38;64.86
77052;SHT30;65980;44.898;8.602;2023-05-01T12:05:14;17.17;66.43
77052;SHT30;65980;44.898;8.602;2023-05-01T12:08:19;17.55;65.35
77052;SHT30;65980;44.898;8.602;2023-05-01T12:11:24;17.24;64.80
77052;SHT30;65980;44.898;8.602;2023-05-01T12:14:29;17.20;64.79
77052;SHT30;65980;44.898;8.602;2023-05-01T12:17:33;17.10;64.97
77052;SHT30;65980;44.898;8.602;2023-05-01T12:20:38;17.27;65.66
77052;SHT30;65980;44.898;8.602;2023-05-01T12:23:42;17.53;63.73
77052;SHT30;65980;44.898;8.602;2023-05-01T12:26:48;17.18;64.63
77052;SHT30;65980;44.898;8.602;2023-05-01T12:30:02;17.49;62.89
77052;SHT30;65980;44.898;8.602;2023-05-01T12:33:09;17.44;64.54
77052;SHT30;65980;44.898;8.602;2023-05-01T12:36:14;17.44;64.03
77052;SHT30;65980;44.898;8.602;2023-05-01T12:39:22;17.69;63.45
77052;SHT30;65980;44.898;8.602;2023-05-01T12:42:25;17.51;63.65
77052;SHT30;65980;44.898;8.602;2023-05-01T12:45:36;17.82;63.08
77052;SHT30;65980;44.898;8.602;2023-05-01T12:48:41;17.99;62.71
77052;SHT30;65980;44.898;8.602;2023-05-01T12:51:45;17.85;60.76
77052;SHT30;65980;44.898;8.602;2023-05-01T12:54:50;18.03;60.58
77052;SHT30;65980;44.898;8.602;2023-05-01T12:58:03;18.10;60.11
77052;SHT30;65980;44.898;8.602;2023-05-01T13:01:08;17.97;57.86
77052;SHT30;65980;44.898;8.602;2023-05-01T13:04:18;17.66;57.53
77052;SHT30;65980;44.898;8.602;2023-05-01T13:07:23;17.89;57.89
77052;SHT30;65980;44.898;8.602;2023-05-01T13:10:27;18.07;57.31
77052;SHT30;65980;44.898;8.602;2023-05-01T13:13:37;17.96;57.06
77052;SHT30;65980;44.898;8.602;2023-05-01T13:16:45;17.79;57.18
77052;SHT30;65980;44.898;8.602;2023-05-01T13:19:55;17.59;57.23
77052;SHT30;65980;44.898;8.602;2023-05-01T13:23:00;17.52;57.69
77052;SHT30;65980;44.898;8.602;2023-05-01T13:26:13;17.48;56.37
77052;SHT30;65980;44.898;8.602;2023-05-01T13:29:17;17.59;57.05
77052;SHT30;65980;44.898;8.602;2023-05-01T13:32:22;17.52;57.37
77052;SHT30;65980;44.898;8.602;2023-05-01T13:35:27;17.63;57.40
77052;SHT30;65980;44.898;8.602;2023-05-01T13:38:32;17.61;56.71
77052;SHT30;65980;44.898;8.602;2023-05-01T13:41:41;17.52;56.84
77052;SHT30;65980;44.898;8.602;2023-05-01T13:44:47;17.39;56.87
77052;SHT30;65980;44.898;8.602;2023-05-01T13:47:54;17.38;57.05
77052;SHT30;65980;44.898;8.602;2023-05-01T13:50:59;17.32;56.79
77052;SHT30;65980;44.898;8.602;2023-05-01T13:54:03;17.21;56.07
77052;SHT30;65980;44.898;8.602;2023-05-01T13:57:08;17.13;57.11
77052;SHT30;65980;44.898;8.602;2023-05-01T14:00:13;17.14;57.34
77052;SHT30;65980;44.898;8.602;2023-05-01T14:03:20;17.30;57.38
77052;SHT30;65980;44.898;8.602;2023-05-01T14:06:24;17.14;57.22
77052;SHT30;65980;44.898;8.602;2023-05-01T14:09:28;17.17;57.27
77052;SHT30;65980;44.898;8.602;2023-05-01T14:12:33;17.21;56.86
77052;SHT30;65980;44.898;8.602;2023-05-01T14:15:36;17.20;57.43
77052;SHT30;65980;44.898;8.602;2023-05-01T14:18:47;17.51;57.20
77052;SHT30;65980;44.898;8.602;2023-05-01T14:21:50;17.51;58.16
77052;SHT30;65980;44.898;8.602;2023-05-01T14:24:54;17.53;57.11
77052;SHT30;65980;44.898;8.602;2023-05-01T14:27:59;17.75;57.80
77052;SHT30;65980;44.898;8.602;2023-05-01T14:31:03;17.69;58.25
77052;SHT30;65980;44.898;8.602;2023-05-01T14:34:08;17.78;58.89
77052;SHT30;65980;44.898;8.602;2023-05-01T14:37:11;17.83;58.51
77052;SHT30;65980;44.898;8.602;2023-05-01T14:40:20;17.73;58.41
77052;SHT30;65980;44.898;8.602;2023-05-01T14:43:27;17.55;59.15
77052;SHT30;65980;44.898;8.602;2023-05-01T14:46:31;17.62;59.22
77052;SHT30;65980;44.898;8.602;2023-05-01T14:49:36;17.56;58.56
77052;SHT30;65980;44.898;8.602;2023-05-01T14:52:40;17.44;58.95
77052;SHT30;65980;44.898;8.602;2023-05-01T14:55:44;17.75;59.16
77052;SHT30;65980;44.898;8.602;2023-05-01T14:58:52;17.34;58.87
77052;SHT30;65980;44.898;8.602;2023-05-01T15:01:55;17.44;59.97
77052;SHT30;65980;44.898;8.602;2023-05-01T15:04:59;17.66;58.26
77052;SHT30;65980;44.898;8.602;2023-05-01T15:08:04;17.62;58.58
77052;SHT30;65980;44.898;8.602;2023-05-01T15:11:15;17.46;58.65
77052;SHT30;65980;44.898;8.602;2023-05-01T15:14:22;17.21;59.22
77052;SHT30;65980;44.898;8.602;2023-05-01T15:17:25;17.51;59.07
77052;SHT30;65980;44.898;8.602;2023-05-01T15:20:30;17.61;57.77
77052;SHT30;65980;44.898;8.602;2023-05-01T15:23:34;17.48;58.39
77052;SHT30;65980;44.898;8.602;2023-05-01T15:26:39;17.62;57.85
77052;SHT30;65980;44.898;8.602;2023-05-01T15:29:43;17.32;58.86
77052;SHT30;65980;44.898;8.602;2023-05-01T15:32:48;17.44;58.91
77052;SHT30;65980;44.898;8.602;2023-05-01T15:35:52;17.34;58.93
77052;SHT30;65980;44.898;8.602;2023-05-01T15:38:56;17.28;59.19
77052;SHT30;65980;44.898;8.602;2023-05-01T15:42:00;17.31;59.78
77052;SHT30;65980;44.898;8.602;2023-05-01T15:45:05;17.25;62.52
77052;SHT30;65980;44.898;8.602;2023-05-01T15:48:09;17.00;65.02
77052;SHT30;65980;44.898;8.602;2023-05-01T15:51:16;17.16;64.91
77052;SHT30;65980;44.898;8.602;2023-05-01T15:54:20;16.87;66.06
77052;SHT30;65980;44.898;8.602;2023-05-01T15:57:24;16.66;66.85
77052;SHT30;65980;44.898;8.602;2023-05-01T16:00:28;16.66;66.90
77052;SHT30;65980;44.898;8.602;2023-05-01T16:03:33;16.70;67.04
77052;SHT30;65980;44.898;8.602;2023-05-01T16:06:38;16.42;67.85
77052;SHT30;65980;44.898;8.602;2023-05-01T16:09:42;16.62;66.22
77052;SHT30;65980;44.898;8.602;2023-05-01T16:12:46;16.56;65.88
77052;SHT30;65980;44.898;8.602;2023-05-01T16:15:53;16.35;65.90
77052;SHT30;65980;44.898;8.602;2023-05-01T16:18:58;16.53;64.50
77052;SHT30;65980;44.898;8.602;2023-05-01T16:22:02;16.53;63.22
77052;SHT30;65980;44.898;8.602;2023-05-01T16:25:11;16.36;62.28
77052;SHT30;65980;44.898;8.602;2023-05-01T16:28:15;16.48;61.06
77052;SHT30;65980;44.898;8.602;2023-05-01T16:31:20;16.59;60.94
77052;SHT30;65980;44.898;8.602;2023-05-01T16:34:24;16.58;59.86
77052;SHT30;65980;44.898;8.602;2023-05-01T16:37:28;16.21;61.64
77052;SHT30;65980;44.898;8.602;2023-05-01T16:40:32;16.22;62.51
77052;SHT30;65980;44.898;8.602;2023-05-01T16:43:44;16.13;61.95
77052;SHT30;65980;44.898;8.602;2023-05-01T16:46:50;16.10;62.13
77052;SHT30;65980;44.898;8.602;2023-05-01T16:49:58;16.21;62.55
77052;SHT30;65980;44.898;8.602;2023-05-01T16:53:02;16.32;61.59
77052;SHT30;65980;44.898;8.602;2023-05-01T16:56:08;16.41;61.44
77052;SHT30;65980;44.898;8.602;2023-05-01T16:59:12;16.47;61.67
77052;SHT30;65980;44.898;8.602;2023-05-01T17:02:16;16.53;61.72
77052;SHT30;65980;44.898;8.602;2023-05-01T17:05:21;16.55;62.08
77052;SHT30;65980;44.898;8.602;2023-05-01T17:08:26;16.66;61.48
77052;SHT30;65980;44.898;8.602;2023-05-01T17:11:30;16.52;61.23
77052;SHT30;65980;44.898;8.602;2023-05-01T17:14:36;16.24;62.43
77052;SHT30;65980;44.898;8.602;2023-05-01T17:17:42;16.29;62.55
77052;SHT30;65980;44.898;8.602;2023-05-01T17:20:46;16.28;63.45
77052;SHT30;65980;44.898;8.602;2023-05-01T17:23:51;16.20;63.47
77052;SHT30;65980;44.898;8.602;2023-05-01T17:26:55;16.35;63.83
77052;SHT30;65980;44.898;8.602;2023-05-01T17:29:59;16.36;64.38
77052;SHT30;65980;44.898;8.602;2023-05-01T17:33:03;16.18;66.33
77052;SHT30;65980;44.898;8.602;2023-05-01T17:36:07;16.24;67.19
77052;SHT30;65980;44.898;8.602;2023-05-01T17:39:12;16.07;69.28
77052;SHT30;65980;44.898;8.602;2023-05-01T17:42:15;15.86;71.17
77052;SHT30;65980;44.898;8.602;2023-05-01T17:45:19;15.58;71.74
77052;SHT30;65980;44.898;8.602;2023-05-01T17:48:24;15.87;71.16
77052;SHT30;65980;44.898;8.602;2023-05-01T17:51:28;15.78;71.87
77052;SHT30;65980;44.898;8.602;2023-05-01T17:54:32;15.97;71.67
77052;SHT30;65980;44.898;8.602;2023-05-01T17:57:40;15.55;72.04
77052;SHT30;65980;44.898;8.602;2023-05-01T18:00:46;15.52;73.01
77052;SHT30;65980;44.898;8.602;2023-05-01T18:03:50;15.52;73.76
77052;SHT30;65980;44.898;8.602;2023-05-01T18:06:54;15.74;73.61
77052;SHT30;65980;44.898;8.602;2023-05-01T18:09:59;15.49;74.08
77052;SHT30;65980;44.898;8.602;2023-05-01T18:13:05;15.62;73.71
77052;SHT30;65980;44.898;8.602;2023-05-01T18:16:09;15.59;74.36
77052;SHT30;65980;44.898;8.602;2023-05-01T18:19:14;15.16;74.86
77052;SHT30;65980;44.898;8.602;2023-05-01T18:22:18;15.41;75.00
77052;SHT30;65980;44.898;8.602;2023-05-01T18:25:23;15.11;76.36
77052;SHT30;65980;44.898;8.602;2023-05-01T18:28:27;15.28;76.30
77052;SHT30;65980;44.898;8.602;2023-05-01T18:31:31;15.17;76.34
77052;SHT30;65980;44.898;8.602;2023-05-01T18:34:36;15.07;76.63
77052;SHT30;65980;44.898;8.602;2023-05-01T18:37:40;15.03;76.40
77052;SHT30;65980;44.898;8.602;2023-05-01T18:40:45;15.17;77.26
77052;SHT30;65980;44.898;8.602;2023-05-01T18:43:50;15.06;75.78
77052;SHT30;65980;44.898;8.602;2023-05-01T18:46:56;15.14;76.39
77052;SHT30;65980;44.898;8.602;2023-05-01T18:50:00;15.38;76.81
77052;SHT30;65980;44.898;8.602;2023-05-01T18:53:06;15.10;76.09
77052;SHT30;65980;44.898;8.602;2023-05-01T18:56:11;14.90;75.97
77052;SHT30;65980;44.898;8.602;2023-05-01T18:59:15;14.63;77.19
77052;SHT30;65980;44.898;8.602;2023-05-01T19:02:22;14.86;77.38
77052;SHT30;65980;44.898;8.602;2023-05-01T19:05:26;15.01;76.97
77052;SHT30;65980;44.898;8.602;2023-05-01T19:08:31;14.91;77.67
77052;SHT30;65980;44.898;8.602;2023-05-01T19:11:35;14.82;78.19
77052;SHT30;65980;44.898;8.602;2023-05-01T19:14:39;15.00;77.88
77052;SHT30;65980;44.898;8.602;2023-05-01T19:17:44;14.90;78.32
77052;SHT30;65980;44.898;8.602;2023-05-01T19:20:48;14.99;78.52
77052;SHT30;65980;44.898;8.602;2023-05-01T19:23:53;14.97;78.56
77052;SHT30;65980;44.898;8.602;2023-05-01T19:26:58;14.82;79.35
77052;SHT30;65980;44.898;8.602;2023-05-01T19:30:04;14.52;80.30
77052;SHT30;65980;44.898;8.602;2023-05-01T19:33:08;14.54;80.11
77052;SHT30;65980;44.898;8.602;2023-05-01T19:36:12;14.37;80.61
77052;SHT30;65980;44.898;8.602;2023-05-01T19:39:17;14.27;81.44
77052;SHT30;65980;44.898;8.602;2023-05-01T19:42:21;14.21;81.45
77052;SHT30;65980;44.898;8.602;2023-05-01T19:45:25;14.03;82.08
77052;SHT30;65980;44.898;8.602;2023-05-01T19:48:29;13.91;82.35
77052;SHT30;65980;44.898;8.602;2023-05-01T19:51:33;13.87;82.74
77052;SHT30;65980;44.898;8.602;2023-05-01T19:54:37;13.80;82.14
77052;SHT30;65980;44.898;8.602;2023-05-01T19:57:41;13.87;82.26
77052;SHT30;65980;44.898;8.602;2023-05-01T20:00:45;13.97;82.05
77052;SHT30;65980;44.898;8.602;2023-05-01T20:03:49;13.89;82.35
77052;SHT30;65980;44.898;8.602;2023-05-01T20:06:53;13.84;82.31
77052;SHT30;65980;44.898;8.602;2023-05-01T20:09:57;13.83;82.70
77052;SHT30;65980;44.898;8.602;2023-05-01T20:13:01;13.79;82.74
77052;SHT30;65980;44.898;8.602;2023-05-01T20:16:12;13.80;83.49
77052;SHT30;65980;44.898;8.602;2023-05-01T20:19:16;13.87;83.96
77052;SHT30;65980;44.898;8.602;2023-05-01T20:22:21;13.86;83.74
77052;SHT30;65980;44.898;8.602;2023-05-01T20:25:25;13.83;83.41
77052;SHT30;65980;44.898;8.602;2023-05-01T20:28:29;13.89;83.91
77052;SHT30;65980;44.898;8.602;2023-05-01T20:31:35;13.77;84.24
77052;SHT30;65980;44.898;8.602;2023-05-01T20:38:10;13.86;83.94
77052;SHT30;65980;44.898;8.602;2023-05-01T20:41:15;13.76;84.14
77052;SHT30;65980;44.898;8.602;2023-05-01T20:44:19;13.77;84.67
77052;SHT30;65980;44.898;8.602;2023-05-01T20:47:23;13.69;84.59
77052;SHT30;65980;44.898;8.602;2023-05-01T20:50:28;13.67;84.84
77052;SHT30;65980;44.898;8.602;2023-05-01T20:53:33;13.69;85.18